Time;durP1;ratioP1;P1;durP2;ratioP2;P2;SDS_P1;SDS_P2;PMS_P1;PMS_P2;Temp;Humidity;BMP_temperature;BMP_pressure;BME280_temperature;BME280_humidity;BME280_pressure;Samples;Min_cycle;Max_cycle;Signal;HPM_P1;HPM_P2
2023/08/21 00:00:50;;;;;;;7.90;3.90;;;22.80;99.90;;;;;;5074499;28;20468;-75
2023/08/21 00:03:36;;;;;;;6.72;3.80;;;22.90;99.90;;;;;;5047714;28;20043;-73
2023/08/21 00:06:22;;;;;;;8.85;4.25;;;22.80;99.90;;;;;;5077230;28;20044;-74
2023/08/21 00:09:08;;;;;;;7.30;4.40;;;22.80;99.90;;;;;;5050896;28;20105;-73
2023/08/21 00:11:54;;;;;;;7.78;3.75;;;22.80;99.90;;;;;;5074889;28;20694;-74
2023/08/21 00:14:40;;;;;;;6.35;3.75;;;22.80;99.90;;;;;;5099475;28;20036;-74
2023/08/21 00:17:26;;;;;;;7.72;3.83;;;22.80;99.90;;;;;;5085487;28;20468;-74
2023/08/21 00:20:12;;;;;;;6.50;3.92;;;22.70;99.90;;;;;;5111484;28;20035;-74
2023/08/21 00:22:58;;;;;;;9.95;4.13;;;22.70;99.90;;;;;;5055345;28;20136;-73
2023/08/21 00:25:46;;;;;;;8.07;3.97;;;22.70;99.90;;;;;;5104299;28;20043;-74
2023/08/21 00:28:33;;;;;;;8.15;3.95;;;22.70;99.90;;;;;;5084404;28;20118;-75
2023/08/21 00:31:19;;;;;;;8.05;3.58;;;22.70;99.90;;;;;;5085486;28;20609;-76
2023/08/21 00:34:05;;;;;;;9.38;4.07;;;22.60;99.90;;;;;;5092779;28;20040;-74
2023/08/21 00:36:51;;;;;;;10.13;3.63;;;22.60;99.90;;;;;;5080384;28;20489;-74
2023/08/21 00:39:37;;;;;;;7.90;4.20;;;22.60;99.90;;;;;;5098526;28;20039;-75
2023/08/21 00:42:23;;;;;;;7.60;3.45;;;22.60;99.90;;;;;;5092717;28;20463;-74
2023/08/21 00:45:09;;;;;;;11.55;4.22;;;22.60;99.90;;;;;;5083028;28;20360;-74
2023/08/21 00:47:55;;;;;;;13.57;4.45;;;22.60;99.90;;;;;;5093263;27;20071;-73
2023/08/21 00:50:41;;;;;;;12.00;4.50;;;22.60;99.90;;;;;;5069831;28;20032;-75
2023/08/21 00:53:27;;;;;;;8.38;3.72;;;22.60;99.90;;;;;;5076499;28;20041;-75
2023/08/21 00:56:13;;;;;;;7.18;3.80;;;22.50;99.90;;;;;;5075911;28;20032;-73
2023/08/21 00:58:58;;;;;;;7.93;3.80;;;22.50;99.90;;;;;;5069342;28;20073;-73
2023/08/21 01:01:45;;;;;;;6.70;4.00;;;22.50;99.90;;;;;;5064851;28;20506;-74
2023/08/21 01:04:31;;;;;;;7.97;3.70;;;22.40;99.90;;;;;;5083608;28;20479;-75
2023/08/21 01:07:17;;;;;;;8.60;4.20;;;22.40;99.90;;;;;;5069343;28;20052;-75
2023/08/21 01:10:33;;;;;;;6.68;3.72;;;22.40;99.90;;;;;;5082688;28;20139;-74
2023/08/21 01:13:35;;;;;;;7.65;3.90;;;22.40;99.90;;;;;;5099619;28;20443;-74
2023/08/21 01:16:21;;;;;;;6.53;3.95;;;22.30;99.90;;;;;;5052433;28;20484;-72
2023/08/21 01:19:10;;;;;;;9.60;4.15;;;22.30;99.90;;;;;;5075318;28;20104;-72
2023/08/21 01:21:56;;;;;;;5.63;3.88;;;22.20;99.90;;;;;;5096600;28;20047;-72
2023/08/21 01:24:42;;;;;;;7.15;4.15;;;22.20;99.90;;;;;;5089164;28;20479;-72
2023/08/21 01:27:28;;;;;;;9.57;4.10;;;22.20;99.90;;;;;;5061511;28;20048;-72
2023/08/21 01:30:14;;;;;;;7.70;4.03;;;22.10;99.90;;;;;;5086451;28;20168;-72
2023/08/21 01:33:05;;;;;;;8.00;4.60;;;22.20;99.90;;;;;;5074976;28;20043;-72
2023/08/21 01:35:51;;;;;;;10.45;4.20;;;22.10;99.90;;;;;;5067818;28;20046;-71
2023/08/21 01:38:38;;;;;;;7.70;4.15;;;22.10;99.90;;;;;;5089292;28;20122;-72
2023/08/21 01:41:24;;;;;;;8.32;3.88;;;22.00;99.90;;;;;;5093057;28;20050;-71
2023/08/21 01:44:10;;;;;;;10.48;4.53;;;22.00;99.90;;;;;;5082223;28;20035;-71
2023/08/21 01:46:56;;;;;;;6.68;4.25;;;22.00;99.90;;;;;;5062449;28;20039;-72
2023/08/21 01:49:42;;;;;;;11.13;4.00;;;22.00;99.90;;;;;;5069180;28;20423;-71
2023/08/21 01:52:28;;;;;;;5.93;3.72;;;22.00;99.90;;;;;;5110348;28;20115;-71
2023/08/21 01:55:14;;;;;;;8.73;3.90;;;21.90;99.90;;;;;;5079032;28;21048;-71
2023/08/21 01:58:00;;;;;;;10.18;4.53;;;21.90;99.90;;;;;;5061980;28;20044;-72
2023/08/21 02:00:47;;;;;;;8.65;4.20;;;21.90;99.90;;;;;;5085615;28;20036;-72
2023/08/21 02:03:33;;;;;;;7.47;3.88;;;21.80;99.90;;;;;;5060773;27;20103;-71
2023/08/21 02:06:19;;;;;;;10.05;3.92;;;21.80;99.90;;;;;;5068535;28;20047;-72
2023/08/21 02:09:05;;;;;;;5.82;4.00;;;21.80;99.90;;;;;;5094277;28;20373;-72
2023/08/21 02:11:51;;;;;;;8.30;4.50;;;21.80;99.90;;;;;;5082129;28;20035;-71
2023/08/21 02:14:37;;;;;;;5.32;3.70;;;21.70;99.90;;;;;;5081963;28;20451;-73
2023/08/21 02:17:25;;;;;;;5.50;3.92;;;21.80;99.90;;;;;;5095157;28;20123;-75
2023/08/21 02:20:11;;;;;;;16.15;5.15;;;21.70;99.90;;;;;;5070973;28;20093;-75
2023/08/21 02:22:59;;;;;;;10.80;4.47;;;21.70;99.90;;;;;;5096602;28;20047;-74
2023/08/21 02:25:44;;;;;;;7.03;4.23;;;21.70;99.90;;;;;;5092157;28;20050;-74
2023/08/21 02:28:30;;;;;;;14.45;4.15;;;21.60;99.90;;;;;;5082147;28;20364;-73
2023/08/21 02:31:16;;;;;;;9.65;4.65;;;21.50;99.90;;;;;;5076948;28;20104;-73
2023/08/21 02:34:02;;;;;;;11.90;4.72;;;21.50;99.90;;;;;;5082232;28;20040;-75
2023/08/21 02:36:48;;;;;;;12.20;5.63;;;21.50;99.90;;;;;;5076250;28;20046;-74
2023/08/21 02:39:34;;;;;;;8.95;4.60;;;21.40;99.90;;;;;;5080884;28;20048;-74
2023/08/21 02:42:20;;;;;;;9.80;5.50;;;21.40;99.90;;;;;;5095715;28;20043;-74
2023/08/21 02:45:10;;;;;;;11.43;5.10;;;21.30;99.90;;;;;;5090446;28;20151;-74
2023/08/21 02:47:56;;;;;;;11.85;5.32;;;21.30;99.90;;;;;;5088290;28;20180;-74
2023/08/21 02:50:41;;;;;;;8.32;5.13;;;21.30;99.90;;;;;;5095799;28;20119;-74
2023/08/21 02:53:29;;;;;;;10.60;5.05;;;21.30;99.90;;;;;;5110380;28;20130;-73
2023/08/21 02:56:15;;;;;;;8.85;4.88;;;21.20;99.90;;;;;;5070537;28;20070;-75
2023/08/21 02:59:02;;;;;;;7.35;4.72;;;21.20;99.90;;;;;;5096676;28;20050;-75
2023/08/21 03:01:48;;;;;;;10.27;4.40;;;21.20;99.90;;;;;;5095229;28;20039;-74
2023/08/21 03:04:34;;;;;;;8.80;5.10;;;21.20;99.90;;;;;;5083010;28;20104;-74
2023/08/21 03:07:20;;;;;;;7.93;4.70;;;21.20;99.90;;;;;;5102549;28;20043;-74
2023/08/21 03:10:07;;;;;;;7.90;4.57;;;21.10;99.90;;;;;;5058930;28;20357;-74
2023/08/21 03:12:55;;;;;;;8.85;4.68;;;21.10;99.90;;;;;;5060908;28;20036;-74
2023/08/21 03:15:41;;;;;;;8.05;4.63;;;21.10;99.90;;;;;;5057127;28;20171;-73
2023/08/21 03:18:30;;;;;;;7.72;4.57;;;21.10;99.90;;;;;;5075562;28;20463;-74
2023/08/21 03:21:16;;;;;;;10.50;5.35;;;21.10;99.90;;;;;;5055683;28;20126;-74
2023/08/21 03:24:03;;;;;;;13.95;5.40;;;21.10;99.90;;;;;;5073777;28;20437;-74
2023/08/21 03:26:49;;;;;;;8.60;4.15;;;21.00;99.90;;;;;;5074442;28;20052;-74
2023/08/21 03:29:35;;;;;;;7.90;4.70;;;21.00;99.90;;;;;;5057894;28;20052;-74
2023/08/21 03:32:20;;;;;;;11.25;4.53;;;21.00;99.90;;;;;;5047032;28;20043;-74
2023/08/21 03:35:07;;;;;;;6.40;5.10;;;21.00;99.90;;;;;;5052914;28;20123;-74
2023/08/21 03:37:53;;;;;;;6.50;5.07;;;20.90;99.90;;;;;;5054920;28;20461;-74
2023/08/21 03:40:39;;;;;;;7.72;4.60;;;20.90;99.90;;;;;;5048434;28;20118;-74
2023/08/21 03:43:25;;;;;;;8.02;4.80;;;20.90;99.90;;;;;;5079662;28;20048;-74
2023/08/21 03:46:11;;;;;;;7.97;4.70;;;20.80;99.90;;;;;;5067511;28;20099;-75
2023/08/21 03:48:57;;;;;;;8.15;5.03;;;20.80;99.90;;;;;;5054473;28;20101;-73
2023/08/21 03:51:43;;;;;;;7.85;4.88;;;20.70;99.90;;;;;;5064930;28;20119;-75
2023/08/21 03:54:29;;;;;;;10.23;5.20;;;20.70;99.90;;;;;;5065734;28;20498;-75
2023/08/21 03:57:15;;;;;;;8.88;5.70;;;20.70;99.90;;;;;;5051419;28;20044;-75
2023/08/21 04:00:01;;;;;;;10.02;5.00;;;20.70;99.90;;;;;;5081436;28;20033;-75
2023/08/21 04:02:47;;;;;;;9.88;4.97;;;20.70;99.90;;;;;;5046627;28;20041;-74
2023/08/21 04:05:33;;;;;;;9.00;5.22;;;20.60;99.90;;;;;;5078089;28;20032;-75
2023/08/21 04:08:19;;;;;;;8.90;6.07;;;20.60;99.90;;;;;;5074364;28;20451;-74
2023/08/21 04:11:06;;;;;;;10.05;5.88;;;20.60;99.90;;;;;;5075229;28;20035;-74
2023/08/21 04:13:52;;;;;;;8.07;5.20;;;20.50;99.90;;;;;;5059511;28;20041;-75
2023/08/21 04:16:38;;;;;;;10.57;5.30;;;20.50;99.90;;;;;;5091860;28;20047;-75
2023/08/21 04:19:25;;;;;;;10.52;5.35;;;20.50;99.90;;;;;;5065236;28;20052;-75
2023/08/21 04:22:11;;;;;;;16.65;5.55;;;20.50;99.90;;;;;;5067604;28;20055;-75
2023/08/21 04:24:57;;;;;;;10.70;6.80;;;20.50;99.90;;;;;;5063674;28;20040;-75
2023/08/21 04:27:43;;;;;;;7.30;5.60;;;20.40;99.90;;;;;;5067640;28;20047;-75
2023/08/21 04:30:29;;;;;;;8.57;6.20;;;20.40;99.90;;;;;;5073116;28;20072;-74
2023/08/21 04:33:15;;;;;;;10.60;6.40;;;20.30;99.90;;;;;;5072391;28;20040;-74
2023/08/21 04:36:01;;;;;;;7.63;5.72;;;20.30;99.90;;;;;;5072040;28;20768;-76
2023/08/21 04:38:47;;;;;;;9.65;5.90;;;20.30;99.90;;;;;;5063978;28;20113;-74
2023/08/21 04:41:33;;;;;;;11.98;6.78;;;20.30;99.90;;;;;;5085309;28;20527;-74
2023/08/21 04:44:19;;;;;;;11.30;6.28;;;20.30;99.90;;;;;;5064126;28;20043;-72
2023/08/21 04:47:26;;;;;;;10.57;5.90;;;20.30;99.90;;;;;;5082403;28;20611;-71
2023/08/21 04:50:12;;;;;;;11.40;6.45;;;20.30;99.90;;;;;;5072926;28;20468;-72
2023/08/21 04:52:58;;;;;;;9.88;6.47;;;20.20;99.90;;;;;;5067973;28;20408;-71
2023/08/21 04:55:44;;;;;;;10.30;5.90;;;20.30;99.90;;;;;;5087790;28;20086;-72
2023/08/21 04:58:30;;;;;;;11.57;6.07;;;20.30;99.90;;;;;;5055684;28;20044;-72
2023/08/21 05:01:16;;;;;;;12.45;6.30;;;20.30;99.90;;;;;;5070070;28;20553;-72
2023/08/21 05:04:03;;;;;;;11.30;6.18;;;20.30;99.90;;;;;;5059003;28;20059;-73
2023/08/21 05:06:48;;;;;;;10.75;6.70;;;20.30;99.90;;;;;;5094189;28;20168;-72
2023/08/21 05:09:34;;;;;;;10.27;6.05;;;20.30;99.90;;;;;;5083909;28;20404;-72
2023/08/21 05:12:20;;;;;;;11.80;6.38;;;20.20;99.90;;;;;;5112269;28;20070;-72
2023/08/21 05:15:07;;;;;;;12.23;5.85;;;20.20;99.90;;;;;;5071073;28;20042;-72
2023/08/21 05:17:53;;;;;;;10.20;6.55;;;20.20;99.90;;;;;;5079774;28;20036;-72
2023/08/21 05:20:39;;;;;;;12.82;6.22;;;20.20;99.90;;;;;;5097229;28;20035;-71
2023/08/21 05:23:25;;;;;;;12.52;7.32;;;20.20;99.90;;;;;;5089813;28;20040;-71
2023/08/21 05:26:11;;;;;;;12.18;6.97;;;20.20;99.90;;;;;;5076398;28;20035;-72
2023/08/21 05:28:57;;;;;;;10.48;6.90;;;20.20;99.90;;;;;;5085037;28;20044;-72
2023/08/21 05:31:43;;;;;;;13.55;7.38;;;20.10;99.90;;;;;;5064154;28;20472;-71
2023/08/21 05:34:29;;;;;;;12.65;6.93;;;20.10;99.90;;;;;;5072916;28;20039;-72
2023/08/21 05:37:15;;;;;;;11.90;6.45;;;20.10;99.90;;;;;;5077463;28;20131;-72
2023/08/21 05:40:02;;;;;;;12.40;7.20;;;20.10;99.90;;;;;;5095448;28;20040;-72
2023/08/21 05:42:49;;;;;;;11.70;6.55;;;20.10;99.90;;;;;;5088595;28;20059;-71
2023/08/21 05:45:35;;;;;;;10.52;5.70;;;20.10;99.90;;;;;;5094303;28;20051;-72
2023/08/21 05:48:21;;;;;;;17.30;6.85;;;20.20;99.90;;;;;;5083557;28;20043;-72
2023/08/21 05:51:07;;;;;;;13.02;6.00;;;20.30;99.90;;;;;;5096776;28;20814;-72
2023/08/21 05:53:53;;;;;;;11.35;6.20;;;20.30;99.90;;;;;;5075036;28;20039;-72
2023/08/21 05:56:39;;;;;;;10.98;5.65;;;20.30;99.90;;;;;;5077005;28;20046;-72
2023/08/21 05:59:32;;;;;;;15.95;5.85;;;20.40;99.90;;;;;;5068300;28;20092;-73
2023/08/21 06:02:19;;;;;;;14.75;6.60;;;20.40;99.90;;;;;;5096995;28;20088;-72
2023/08/21 06:05:05;;;;;;;10.70;6.03;;;20.50;99.90;;;;;;5095470;28;20055;-72
2023/08/21 06:07:51;;;;;;;11.40;5.90;;;20.50;99.90;;;;;;5061666;28;20052;-73
2023/08/21 06:10:37;;;;;;;13.82;6.10;;;20.60;99.90;;;;;;5079450;28;20067;-72
2023/08/21 06:13:24;;;;;;;8.38;5.05;;;20.60;99.90;;;;;;5082724;28;20050;-71
2023/08/21 06:16:10;;;;;;;10.38;6.03;;;20.70;99.90;;;;;;5096228;28;20385;-72
2023/08/21 06:18:56;;;;;;;9.45;5.22;;;20.70;99.90;;;;;;5079918;28;20039;-71
2023/08/21 06:21:42;;;;;;;10.55;5.05;;;20.80;99.90;;;;;;5089800;28;20044;-71
2023/08/21 06:24:28;;;;;;;9.40;5.05;;;20.80;99.90;;;;;;5106951;28;20051;-72
2023/08/21 06:27:14;;;;;;;9.65;5.57;;;20.70;99.90;;;;;;5062475;28;20079;-71
2023/08/21 06:30:00;;;;;;;10.15;4.88;;;20.90;99.90;;;;;;5088872;28;20071;-71
2023/08/21 06:32:46;;;;;;;8.88;4.30;;;20.80;99.90;;;;;;5080737;28;20660;-72
2023/08/21 06:35:32;;;;;;;8.70;4.53;;;20.90;99.90;;;;;;5080891;28;20035;-71
2023/08/21 06:38:18;;;;;;;6.70;4.75;;;21.00;99.90;;;;;;5078285;28;20043;-72
2023/08/21 06:41:04;;;;;;;7.65;4.57;;;21.00;99.90;;;;;;5089193;28;20182;-72
2023/08/21 06:43:50;;;;;;;9.32;4.78;;;21.00;99.90;;;;;;5074822;28;20079;-71
2023/08/21 06:46:36;;;;;;;10.57;4.68;;;21.00;99.90;;;;;;5078761;28;20108;-71
2023/08/21 06:49:23;;;;;;;12.40;5.03;;;21.10;99.90;;;;;;5082141;28;20039;-71
2023/08/21 06:52:09;;;;;;;15.20;4.40;;;21.20;99.90;;;;;;5090464;28;20480;-72
2023/08/21 06:54:55;;;;;;;8.80;3.75;;;21.20;99.90;;;;;;5073052;28;20036;-71
2023/08/21 06:57:41;;;;;;;10.98;4.07;;;21.20;99.90;;;;;;5077972;28;20460;-72
2023/08/21 07:00:27;;;;;;;7.20;3.72;;;21.30;99.90;;;;;;5075879;28;20050;-72
2023/08/21 07:03:13;;;;;;;9.63;4.28;;;21.30;99.90;;;;;;5099989;28;20552;-71
2023/08/21 07:05:59;;;;;;;8.73;3.28;;;21.30;99.90;;;;;;5091926;28;20417;-72
2023/08/21 07:08:45;;;;;;;7.63;3.45;;;21.40;99.90;;;;;;5081001;28;20062;-72
2023/08/21 07:11:31;;;;;;;6.78;3.30;;;21.30;99.90;;;;;;5094791;28;20038;-71
2023/08/21 07:14:19;;;;;;;10.32;3.60;;;21.30;99.90;;;;;;5061772;28;20036;-72
2023/08/21 07:17:05;;;;;;;8.98;3.33;;;21.40;99.90;;;;;;5069073;28;20682;-72
2023/08/21 07:19:52;;;;;;;11.65;3.60;;;21.50;99.90;;;;;;5092891;28;20069;-72
2023/08/21 07:22:38;;;;;;;7.32;3.30;;;21.50;99.90;;;;;;5074884;28;20112;-73
2023/08/21 07:25:25;;;;;;;6.13;3.05;;;21.50;99.90;;;;;;5076082;28;20044;-71
2023/08/21 07:28:11;;;;;;;9.35;3.00;;;21.60;99.90;;;;;;5102947;28;20177;-72
2023/08/21 07:30:57;;;;;;;6.78;3.05;;;21.70;99.90;;;;;;5060209;28;20367;-71
2023/08/21 07:33:43;;;;;;;7.50;2.97;;;21.70;99.90;;;;;;5081092;28;20032;-72
2023/08/21 07:36:31;;;;;;;9.20;2.80;;;21.80;99.90;;;;;;5080847;28;20585;-71
2023/08/21 07:39:16;;;;;;;6.60;3.20;;;21.90;99.90;;;;;;5094116;28;20040;-72
2023/08/21 07:42:03;;;;;;;9.18;2.95;;;22.00;99.90;;;;;;5088596;28;20097;-72
2023/08/21 07:44:49;;;;;;;7.28;3.05;;;22.00;99.90;;;;;;5066173;28;20134;-72
2023/08/21 07:47:35;;;;;;;5.90;2.83;;;22.00;99.90;;;;;;5079902;28;20067;-71
2023/08/21 07:50:21;;;;;;;6.60;2.10;;;22.10;99.90;;;;;;5109676;28;20075;-72
2023/08/21 07:53:07;;;;;;;5.25;2.20;;;22.10;99.90;;;;;;5108283;28;20109;-72
2023/08/21 07:55:53;;;;;;;5.25;1.90;;;22.20;99.90;;;;;;5088820;28;20043;-72
2023/08/21 07:58:39;;;;;;;5.75;2.38;;;22.30;99.90;;;;;;5093586;28;20074;-72
2023/08/21 08:01:25;;;;;;;7.13;1.92;;;22.30;99.90;;;;;;5080491;28;20058;-72
2023/08/21 08:04:11;;;;;;;3.55;1.65;;;22.40;99.90;;;;;;5103304;28;20736;-71
2023/08/21 08:06:57;;;;;;;5.25;2.00;;;22.50;99.90;;;;;;5104845;28;20056;-72
2023/08/21 08:09:43;;;;;;;10.55;2.00;;;22.30;99.90;;;;;;5073933;28;20054;-73
2023/08/21 08:12:29;;;;;;;5.00;1.92;;;22.20;99.90;;;;;;5042531;28;20071;-72
2023/08/21 08:15:15;;;;;;;5.75;1.88;;;22.30;99.90;;;;;;5083846;28;20099;-74
2023/08/21 08:18:02;;;;;;;6.45;2.42;;;22.30;99.90;;;;;;5059379;28;20039;-73
2023/08/21 08:20:48;;;;;;;6.05;1.90;;;22.30;99.90;;;;;;5067249;28;20488;-74
2023/08/21 08:23:34;;;;;;;5.38;2.22;;;22.30;99.90;;;;;;5063390;28;20471;-74
2023/08/21 08:26:20;;;;;;;7.68;2.10;;;22.30;99.90;;;;;;5049263;28;20392;-73
2023/08/21 08:29:06;;;;;;;5.78;1.45;;;22.30;99.90;;;;;;5077091;28;20043;-75
2023/08/21 08:31:51;;;;;;;5.90;2.20;;;22.40;99.90;;;;;;5057584;28;20043;-74
2023/08/21 08:34:37;;;;;;;5.97;2.28;;;22.50;99.90;;;;;;5074854;28;20127;-73
2023/08/21 08:37:23;;;;;;;6.45;2.10;;;22.60;99.90;;;;;;5076426;28;20134;-75
2023/08/21 08:40:10;;;;;;;5.93;2.05;;;22.60;99.90;;;;;;5075993;28;20134;-73
2023/08/21 08:42:56;;;;;;;5.85;2.35;;;22.70;99.90;;;;;;5057215;28;20040;-74
2023/08/21 08:45:43;;;;;;;4.03;1.98;;;22.60;99.90;;;;;;5071248;28;20044;-73
2023/08/21 08:48:29;;;;;;;5.22;1.90;;;22.70;99.90;;;;;;5064441;28;20048;-75
2023/08/21 08:51:15;;;;;;;5.05;1.77;;;22.70;99.90;;;;;;5064306;28;20093;-73
2023/08/21 08:54:01;;;;;;;6.50;2.35;;;22.60;99.90;;;;;;5049005;28;20036;-73
2023/08/21 08:56:47;;;;;;;5.28;2.00;;;22.50;99.90;;;;;;5051790;28;20037;-73
2023/08/21 08:59:33;;;;;;;4.07;2.05;;;22.50;99.90;;;;;;5063361;28;20041;-73
2023/08/21 09:02:19;;;;;;;7.93;2.00;;;22.70;99.90;;;;;;5073957;28;20047;-74
2023/08/21 09:05:06;;;;;;;4.45;1.65;;;22.80;99.90;;;;;;5047877;28;20057;-74
2023/08/21 09:08:11;;;;;;;14.82;2.72;;;22.90;99.90;;;;;;5064967;28;20090;-74
2023/08/21 09:11:00;;;;;;;6.50;1.90;;;23.10;99.90;;;;;;5088167;28;20154;-74
2023/08/21 09:13:51;;;;;;;4.07;1.85;;;23.20;99.90;;;;;;5063850;28;20085;-75
2023/08/21 09:16:37;;;;;;;4.05;1.98;;;23.30;99.90;;;;;;5064525;28;20061;-74
2023/08/21 09:19:24;;;;;;;6.05;2.03;;;23.50;99.90;;;;;;5063858;28;20074;-74
2023/08/21 09:22:15;;;;;;;9.57;2.17;;;23.60;99.90;;;;;;5071186;28;20055;-74
2023/08/21 09:25:09;;;;;;;8.18;3.38;;;23.60;99.90;;;;;;5065444;28;20051;-74
2023/08/21 09:27:55;;;;;;;7.57;2.03;;;23.40;99.90;;;;;;5072235;28;20520;-74
2023/08/21 09:30:47;;;;;;;8.95;3.35;;;23.20;99.90;;;;;;5055488;28;20097;-74
2023/08/21 09:33:33;;;;;;;8.35;4.05;;;23.30;99.90;;;;;;5065580;28;20480;-74
2023/08/21 09:36:21;;;;;;;10.90;4.28;;;23.40;99.90;;;;;;5054970;28;20070;-74
2023/08/21 09:39:09;;;;;;;7.70;3.08;;;23.50;99.90;;;;;;5089792;28;20482;-73
2023/08/21 09:41:56;;;;;;;8.10;3.35;;;23.60;99.90;;;;;;5069271;28;20044;-74
2023/08/21 09:44:43;;;;;;;11.25;3.20;;;23.70;99.90;;;;;;5090645;28;20093;-74
2023/08/21 09:47:29;;;;;;;10.37;2.97;;;23.80;99.90;;;;;;5071423;28;20425;-73
2023/08/21 09:50:15;;;;;;;7.78;2.25;;;23.70;99.90;;;;;;5068875;28;20289;-74
2023/08/21 09:53:02;;;;;;;9.48;2.85;;;23.70;99.90;;;;;;5075571;28;20036;-74
2023/08/21 09:55:53;;;;;;;7.45;3.30;;;23.90;99.90;;;;;;5075866;28;20032;-74
2023/08/21 09:58:39;;;;;;;7.40;2.50;;;24.10;99.90;;;;;;5076916;28;20081;-74
2023/08/21 10:01:25;;;;;;;6.80;2.50;;;24.30;99.90;;;;;;5056063;28;20496;-74
2023/08/21 10:04:12;;;;;;;5.88;2.17;;;24.40;99.90;;;;;;5055062;28;20053;-74
2023/08/21 10:06:58;;;;;;;5.70;2.40;;;24.40;99.90;;;;;;5081117;28;20044;-73
2023/08/21 10:09:44;;;;;;;8.63;2.53;;;24.30;99.90;;;;;;5058495;28;20112;-75
2023/08/21 10:12:30;;;;;;;5.82;2.00;;;24.40;99.90;;;;;;5082961;28;20031;-74
2023/08/21 10:15:16;;;;;;;6.35;2.60;;;24.50;99.90;;;;;;5068101;28;20081;-74
2023/08/21 10:18:23;;;;;;;5.80;2.17;;;24.80;99.90;;;;;;5063254;28;20036;-74
2023/08/21 10:21:19;;;;;;;5.63;1.53;;;24.90;99.90;;;;;;5096698;28;20043;-74
2023/08/21 10:24:05;;;;;;;6.53;1.70;;;24.70;98.80;;;;;;5057431;28;20067;-74
2023/08/21 10:26:51;;;;;;;5.82;2.50;;;24.90;99.90;;;;;;5054488;28;20046;-74
2023/08/21 10:29:38;;;;;;;5.78;1.55;;;25.00;99.90;;;;;;5082593;28;20039;-73
2023/08/21 10:32:24;;;;;;;5.80;1.60;;;24.90;99.20;;;;;;5082020;28;20744;-74
2023/08/21 10:35:15;;;;;;;5.75;1.90;;;24.90;99.30;;;;;;5082443;28;20039;-73
2023/08/21 10:38:17;;;;;;;4.32;1.60;;;24.90;99.00;;;;;;5082266;28;20459;-72
2023/08/21 10:41:05;;;;;;;4.88;1.48;;;25.00;99.40;;;;;;5092725;28;20058;-73
2023/08/21 10:43:52;;;;;;;6.07;1.52;;;24.90;98.70;;;;;;5081549;28;20379;-73
2023/08/21 10:46:50;;;;;;;5.78;1.60;;;25.00;99.20;;;;;;5095141;28;20048;-73
2023/08/21 10:49:36;;;;;;;6.32;1.63;;;24.90;97.70;;;;;;5084314;28;20040;-72
2023/08/21 10:52:26;;;;;;;9.38;2.33;;;25.00;96.80;;;;;;5079066;28;20543;-73
2023/08/21 10:55:15;;;;;;;5.55;1.77;;;25.10;98.00;;;;;;5067256;28;20090;-73
2023/08/21 10:58:01;;;;;;;7.45;1.70;;;25.40;98.40;;;;;;5065873;28;20042;-73
2023/08/21 11:00:56;;;;;;;6.55;1.35;;;25.30;97.40;;;;;;5060631;28;20050;-74
2023/08/21 11:03:46;;;;;;;4.88;1.70;;;25.30;98.10;;;;;;5088947;28;20031;-74
2023/08/21 11:06:32;;;;;;;8.40;1.50;;;25.60;99.80;;;;;;5080668;28;20375;-74
2023/08/21 11:09:19;;;;;;;6.20;1.60;;;25.80;97.70;;;;;;5089947;28;20203;-74
2023/08/21 11:12:10;;;;;;;6.88;1.70;;;25.80;98.40;;;;;;5079870;28;20203;-74
2023/08/21 11:14:56;;;;;;;7.97;2.13;;;25.90;96.70;;;;;;5071623;28;20042;-73
2023/08/21 11:17:42;;;;;;;7.07;1.60;;;25.90;97.90;;;;;;5100464;28;20035;-73
2023/08/21 11:20:32;;;;;;;4.13;1.45;;;26.00;98.70;;;;;;5061406;28;20112;-74
2023/08/21 11:23:18;;;;;;;4.35;1.60;;;26.30;98.10;;;;;;5076956;28;20154;-73
2023/08/21 11:26:04;;;;;;;7.00;1.90;;;26.40;97.60;;;;;;5069733;28;20476;-73
2023/08/21 11:28:50;;;;;;;4.75;1.60;;;26.40;96.10;;;;;;5061622;28;20047;-73
2023/08/21 11:31:36;;;;;;;4.63;1.30;;;26.40;97.80;;;;;;5064941;28;20341;-74
2023/08/21 11:34:22;;;;;;;4.43;1.40;;;26.60;98.60;;;;;;5080496;28;20035;-74
2023/08/21 11:37:08;;;;;;;4.10;1.58;;;26.70;96.50;;;;;;5072190;28;20551;-74
2023/08/21 11:39:55;;;;;;;8.23;1.67;;;26.80;97.60;;;;;;5068593;28;20108;-73
2023/08/21 11:42:41;;;;;;;6.50;1.63;;;26.90;97.40;;;;;;5081454;28;20096;-73
2023/08/21 11:45:27;;;;;;;4.97;1.40;;;26.90;95.80;;;;;;5079513;28;20039;-74
2023/08/21 11:48:13;;;;;;;4.85;1.52;;;26.90;96.20;;;;;;5081859;28;20475;-73
2023/08/21 11:51:00;;;;;;;4.03;1.83;;;27.00;96.80;;;;;;5075929;28;20051;-75
2023/08/21 11:53:48;;;;;;;6.45;2.00;;;27.10;96.70;;;;;;5095313;28;20035;-73
2023/08/21 11:56:36;;;;;;;3.33;1.33;;;27.00;95.80;;;;;;5076586;28;20043;-74
2023/08/21 11:59:22;;;;;;;;;;;27.20;97.10;;;;;;5081594;28;20042;-75
2023/08/21 12:02:10;;;;;;;5.97;1.40;;;27.20;96.10;;;;;;5097620;28;20040;-74
2023/08/21 12:05:04;;;;;;;8.73;1.45;;;27.30;95.20;;;;;;5082282;28;20083;-74
2023/08/21 12:07:50;;;;;;;4.95;1.65;;;27.40;95.40;;;;;;5088634;28;20062;-75
2023/08/21 12:10:37;;;;;;;4.78;1.35;;;27.50;96.80;;;;;;5090799;28;20067;-75
2023/08/21 12:13:22;;;;;;;4.57;1.52;;;27.60;96.20;;;;;;5059465;28;20040;-75
2023/08/21 12:16:08;;;;;;;5.30;1.33;;;27.70;96.80;;;;;;5088322;28;20039;-75
2023/08/21 12:18:57;;;;;;;3.80;1.20;;;27.70;96.40;;;;;;5076968;28;20044;-75
2023/08/21 12:21:43;;;;;;;4.43;1.38;;;27.90;96.00;;;;;;5099861;28;20040;-74
2023/08/21 12:24:29;;;;;;;4.70;1.50;;;28.00;96.40;;;;;;5098931;28;20036;-73
2023/08/21 12:27:16;;;;;;;3.88;1.30;;;27.90;95.60;;;;;;5079349;28;20050;-73
2023/08/21 12:30:02;;;;;;;4.60;1.53;;;27.80;96.00;;;;;;5078573;28;20049;-74
2023/08/21 12:32:48;;;;;;;4.95;1.35;;;27.40;92.80;;;;;;5068577;28;20301;-73
2023/08/21 12:35:34;;;;;;;6.72;1.40;;;27.00;92.80;;;;;;5090978;28;20126;-73
2023/08/21 12:38:21;;;;;;;3.75;1.13;;;27.10;93.50;;;;;;5080018;28;20042;-75
2023/08/21 12:41:07;;;;;;;4.00;1.10;;;27.30;93.80;;;;;;5081411;28;20043;-75
2023/08/21 12:43:53;;;;;;;4.35;1.20;;;27.60;94.80;;;;;;5078372;28;20473;-75
2023/08/21 12:46:39;;;;;;;5.13;1.30;;;27.80;94.50;;;;;;5072385;28;20411;-74
2023/08/21 12:49:25;;;;;;;4.90;1.35;;;28.00;94.80;;;;;;5059528;28;20051;-74
2023/08/21 12:52:12;;;;;;;4.05;1.20;;;27.90;93.20;;;;;;5077602;28;20631;-74
2023/08/21 12:54:59;;;;;;;4.57;1.25;;;28.00;94.00;;;;;;5068470;28;20136;-74
2023/08/21 12:57:45;;;;;;;4.47;1.35;;;28.10;94.90;;;;;;5075900;28;20040;-74
2023/08/21 13:00:32;;;;;;;5.15;1.25;;;28.10;94.20;;;;;;5078800;28;20044;-74
2023/08/21 13:03:18;;;;;;;3.85;1.60;;;27.90;92.50;;;;;;5064896;28;20043;-74
2023/08/21 13:06:05;;;;;;;4.03;1.30;;;27.80;93.50;;;;;;5093399;28;20040;-74
2023/08/21 13:08:51;;;;;;;7.82;1.40;;;28.00;94.10;;;;;;5078725;28;20056;-75
2023/08/21 13:11:37;;;;;;;4.85;1.17;;;28.20;93.50;;;;;;5070327;28;20144;-73
2023/08/21 13:14:23;;;;;;;3.78;1.30;;;27.60;90.70;;;;;;5077434;28;20432;-75
2023/08/21 13:17:09;;;;;;;6.50;1.40;;;27.10;91.00;;;;;;5107627;28;20134;-74
2023/08/21 13:19:55;;;;;;;4.00;1.33;;;27.20;91.50;;;;;;5116733;27;20051;-75
2023/08/21 13:22:46;;;;;;;4.18;1.50;;;27.10;90.70;;;;;;5089499;28;20055;-74
2023/08/21 13:25:32;;;;;;;5.30;1.00;;;27.10;91.00;;;;;;5081126;28;20443;-75
2023/08/21 13:28:18;;;;;;;5.50;1.27;;;27.40;90.90;;;;;;5109381;28;20179;-73
2023/08/21 13:31:06;;;;;;;3.40;1.15;;;27.60;90.40;;;;;;5079196;28;20036;-74
2023/08/21 13:33:53;;;;;;;6.45;1.50;;;27.50;91.00;;;;;;5050382;28;20085;-74
2023/08/21 13:36:39;;;;;;;3.30;1.10;;;28.00;91.00;;;;;;5071118;28;20040;-74
2023/08/21 13:39:26;;;;;;;6.15;2.03;;;28.10;90.90;;;;;;5079990;28;20047;-74
2023/08/21 13:42:12;;;;;;;6.75;1.40;;;27.90;90.50;;;;;;5096835;28;20150;-74
2023/08/21 13:44:58;;;;;;;4.53;1.45;;;27.90;90.10;;;;;;5089260;28;20123;-75
2023/08/21 13:47:48;;;;;;;7.40;1.33;;;28.10;90.10;;;;;;5074815;28;20126;-74
2023/08/21 13:50:35;;;;;;;4.93;1.30;;;28.20;89.60;;;;;;5074480;28;20051;-75
2023/08/21 13:53:23;;;;;;;5.45;1.13;;;28.60;90.10;;;;;;5080932;28;20044;-74
2023/08/21 13:56:09;;;;;;;;;;;28.60;88.70;;;;;;5082263;28;20040;-74
2023/08/21 13:58:56;;;;;;;4.70;1.40;;;29.00;90.00;;;;;;5092353;28;19914;-74
2023/08/21 14:01:43;;;;;;;4.05;1.20;;;29.30;90.30;;;;;;5061069;28;20048;-75
2023/08/21 14:04:31;;;;;;;6.50;1.52;;;29.70;90.50;;;;;;5080484;28;20708;-74
2023/08/21 14:07:17;;;;;;;5.03;1.25;;;29.80;88.10;;;;;;5055309;28;20448;-73
2023/08/21 14:10:06;;;;;;;4.97;1.20;;;29.90;90.20;;;;;;5070096;28;20040;-75
2023/08/21 14:12:52;;;;;;;5.97;1.20;;;30.20;90.00;;;;;;5062310;28;20040;-77
2023/08/21 14:15:38;;;;;;;4.60;1.13;;;30.60;88.20;;;;;;5076247;28;20040;-76
2023/08/21 14:18:24;;;;;;;3.92;1.10;;;30.80;84.00;;;;;;5057201;28;20045;-76
2023/08/21 14:21:10;;;;;;;5.40;1.48;;;29.80;82.90;;;;;;5090730;28;20123;-75
2023/08/21 14:23:56;;;;;;;6.28;1.50;;;29.50;82.00;;;;;;5089785;28;20368;-74
2023/08/21 14:26:42;;;;;;;3.47;1.00;;;29.80;83.40;;;;;;5061960;28;20040;-74